< Cyclone 197803 1978 Season Cyclone 197805 >
Cyclone 197804 (VERN)
General InformationTrack Information on Google Maps || ResourceGoogle EarthGE AnimationAtom FeedGeoJSON
Detalied Best Track (Time Zone = UTC)
Year Month Day Hour Lat. Long. Pressure (hPa) Wind (kt) Class Image Chart
1978 1 27 01 -15.9 114.8 999 0 0 -- --
1978 1 27 04 -15.9 114.4 998 0 0 -- --
1978 1 27 07 -15.9 114.0 997 0 0 -- --
1978 1 27 10 -15.9 113.6 997 0 0 -- --
1978 1 27 13 -15.9 113.2 997 0 0 -- --
1978 1 27 16 -15.8 112.8 997 0 0 -- --
1978 1 27 19 -15.7 112.4 997 0 0 -- --
1978 1 27 22 -15.6 111.9 996 0 0 -- --
1978 1 28 01 -15.5 111.4 995 0 0 -- --
1978 1 28 04 -15.4 110.8 994 0 0 -- --
1978 1 28 07 -15.3 110.2 992 0 0 -- --
1978 1 28 10 -15.5 109.6 990 0 0 -- --
1978 1 28 13 -16.3 109.7 988 0 0 -- --
1978 1 28 16 -16.5 110.8 986 0 0 -- --
1978 1 28 19 -16.3 111.6 984 0 0 -- --
1978 1 28 22 -16.1 112.2 982 0 0 -- --
1978 1 29 01 -16.0 112.7 981 0 0 -- --
1978 1 29 04 -15.9 113.0 980 0 0 -- --
1978 1 29 07 -15.8 113.3 979 0 0 -- --
1978 1 29 10 -15.7 113.7 978 0 0 -- --
1978 1 29 13 -15.7 114.0 977 0 0 -- --
1978 1 29 16 -15.7 114.3 976 0 0 -- --
1978 1 29 19 -15.6 114.6 975 0 0 -- --
1978 1 29 22 -15.6 114.9 974 0 0 -- --
1978 1 30 01 -15.6 115.3 973 0 0 -- --
1978 1 30 04 -15.7 116.0 971 0 0 -- --
1978 1 30 07 -15.8 116.7 969 0 0 -- --
1978 1 30 10 -15.9 117.2 968 0 0 -- --
1978 1 30 13 -16.1 117.6 968 0 0 -- --
1978 1 30 16 -16.2 118.1 968 0 0 -- --
1978 1 30 19 -16.4 118.9 967 0 0 -- --
1978 1 30 22 -16.6 119.5 966 0 0 -- --
1978 1 31 01 -16.9 120.0 965 0 0 -- --
1978 1 31 04 -17.1 120.3 965 0 0 -- --
1978 1 31 07 -17.4 120.5 964 0 0 -- --
1978 1 31 10 -17.7 121.0 965 0 0 -- --
1978 1 31 12 -17.8 121.1 965 0 0 -- --
1978 1 31 13 -17.9 121.2 965 0 0 -- --
1978 1 31 16 -18.1 121.4 965 0 0 -- --
1978 1 31 19 -18.3 121.4 965 0 0 -- --
1978 1 31 22 -18.5 121.4 965 0 0 -- --
1978 2 1 01 -18.7 121.4 965 0 0 -- --
1978 2 1 04 -19.1 121.4 967 0 0 -- --
1978 2 1 07 -19.4 121.3 971 0 0 -- --
1978 2 1 10 -19.6 121.1 975 0 0 -- --
1978 2 1 13 -19.8 120.9 979 0 0 -- --
1978 2 1 16 -20.1 120.6 982 0 0 -- --
1978 2 1 19 -20.3 120.5 985 0 0 -- --
1978 2 1 22 -20.5 120.4 988 0 0 -- --
1978 2 2 01 -20.8 120.3 990 0 0 -- --
1978 2 2 04 -21.2 120.3 990 0 0 -- --
1978 2 2 07 -21.6 120.2 990 0 0 -- --
1978 2 2 10 -22.0 120.2 992 0 0 -- --
1978 2 2 13 -22.3 120.2 993 0 0 -- --
1978 2 2 16 -22.6 120.4 993 0 0 -- --
1978 2 2 19 -22.9 120.5 995 0 0 -- --
1978 2 2 22 -23.2 120.7 996 0 0 -- --
1978 2 3 01 -23.5 121.0 997 0 0 -- --
< Cyclone 197803 1978 Season Cyclone 197805 >

Help